METAR Data
IDs: Format: Raw Decoded Include TAF

Data at: 0242 UTC 29 Nov 2020

METAR for:KCID (Cedar Rapids/E Iowao, IA, US)
Text:KCID 290152Z 22006KT 10SM CLR 05/01 A3000 RMK AO2 SLP169 T00500006
Temperature: 5.0°C ( 41°F)
Dewpoint: 0.6°C ( 33°F) [RH = 73%]
Pressure (altimeter):30.00 inches Hg (1016.0 mb) [Sea level pressure: 1016.9 mb]
Winds:from the SW (220 degrees) at 7 MPH (6 knots; 3.1 m/s)
Visibility:10 or more sm (16+ km)
Ceiling:at least 12,000 feet AGL
Clouds:sky clear below 12,000 feet AGL